AirNav   Air Wisconsin pilot careers
 
 670 users online  

CYQG Windsor Airport
Windsor, Ontario, Canada


FAA INFORMATION EFFECTIVE 09 NOVEMBER 2017

Location

FAA Identifier: CYQG
Lat/Long: 42-16-33.1111N / 082-57-27.5347W
42-16.551852N / 082-57.458912W
42.2758642 / -82.9576485
(estimated)
Elevation: 622 ft. / 190 m (estimated)
Variation: 07W ()
Time zone: UTC -5 (UTC -4 during Daylight Saving Time)
Zip code: 48243

Airport Operations

Airport use: Open to the public
Activation date: 03/2005
Control tower: no
ARTCC: CLEVELAND CENTER
FSS: LONDON FIC FLIGHT SERVICE STATION
Attendance: 
Segmented circle: no

Airport Communications

WX ASOS at DET (8 nm N): PHONE 313-371-9696
WX AWOS-3 at ONZ (14 nm SW): 119.675 (734-692-9686)
WX ASOS at DTW (18 nm W): 133.675 (734-955-5015)
WX AWOS-3 at VLL (19 nm NW): 119.475 (248-288-4649)

Nearby radio navigation aids

VOR radial/distance  VOR name  Freq  Var
YQGr291/5.9WINDSOR VOR/DME113.8006W
DXOr084/18.6DETROIT VOR/DME113.4006W
CRLr061/26.1CARLETON VOR/DME115.7003W
SVMr109/29.3SALEM VORTAC114.3003W
PSIr138/36.0PONTIAC VORTAC111.0003W

 
NDB name  Hdg/Dist  Freq  Var  ID
CARGL187/4.823005WVQ ...- --.-
GROSSE ILE047/13.641907WRYS .-. -.-- ...
MADDS160/14.433805WDE -.. .

Airport Services

Runway Information

Runway 7/25

Dimensions: 9000 x 200 ft. / 2743 x 61 m
Surface: asphalt
RUNWAY 7  RUNWAY 25
Latitude: 42-16.404018N42-17.086803N
Longitude: 082-58.209487W082-56.438652W
Elevation: 622.0 ft.608.0 ft.
Traffic pattern: leftleft
Runway heading: 070 magnetic, 063 true250 magnetic, 243 true
Displaced threshold: 901 ft.1143 ft.
Touchdown point: yes, no lightsyes, no lights

Runway 12/30

Dimensions: 5150 x 150 ft. / 1570 x 46 m
Surface: asphalt
RUNWAY 12  RUNWAY 30
Latitude: 42-16.396830N42-16.030400N
Longitude: 082-58.209295W082-57.179820W
Elevation: 622.0 ft.619.0 ft.
Traffic pattern: leftleft
Runway heading: 123 magnetic, 116 true303 magnetic, 296 true
Displaced threshold: 570 ft.321 ft.
Touchdown point: yes, no lightsyes, no lights

Airport Ownership and Management from official FAA records

Ownership: Publicly-owned

Instrument Procedures

There are no published instrument procedures at CYQG.

Some nearby airports with instrument procedures:

KDET - Coleman A Young Municipal Airport (8 nm N)
KONZ - Grosse Ile Municipal Airport (14 nm SW)
KDTW - Detroit Metropolitan Wayne County Airport (18 nm W)
KVLL - Oakland/Troy Airport (19 nm NW)
KMTC - Selfridge Air National Guard Base (21 nm N)
 
Loc | Ops | Rwys | IFR | FBO | Links
Com | Nav | Svcs | Stats | Notes


 
Aerial photo
No photo
 
Airport distance calculator
Flying to Windsor Airport? Find the distance to fly.

From to CYQG

Sunrise and sunset
Times for 19-Nov-2017
 Local
(UTC-5)
 Zulu
(UTC)
Morning civil twilight06:5811:58
Sunrise07:2812:28
Sunset17:0622:06
Evening civil twilight17:3722:37

Current date and time
Zulu (UTC)  20-Nov-2017 04:53:20
Local (UTC-5)  19-Nov-2017 23:53:20
 
METAR
CYQG 200400Z 27013KT 15SM BKN038 OVC150 M01/M07 A3000 RMK CU6AS2 SLP167
KDET 
8nm N 
200353Z 27010KT 10SM OVC036 A3000 RMK AO2 SLPNO $
KONZ 
14nm SW 
200432Z AUTO 25007KT 10SM SCT038 00/M05 A3001 RMK AO2 T10051055
CXHA 
15nm S 
200400Z AUTO 28007KT M00/M06 RMK AO1 SLP169 T10031058 52014
KDTW 
17nm W 
200353Z 24007KT 10SM BKN035 OVC150 M01/M07 A3001 RMK AO2 SLP160 T10061067 $
KVLL 
19nm NW 
200434Z AUTO 24005KT 10SM SCT030 SCT100 00/M06 A3002 RMK AO2 T10021058
TAF
CYQG 191741Z 1918/2018 30013KT P6SM OVC040 TEMPO 1918/1924 3SM -SHSNRA BR BKN020 PROB30 1918/1924 1SM -SHSN VV012 FM200000 29015G25KT P6SM BKN040 FM200300 28015KT P6SM SCT040 TEMPO 2003/2007 BKN040 FM200700 25008KT P6SM SCT040 FM201200 23009KT P6SM BKN015 BKN160 FM201500 23012G25KT P6SM FEW015 RMK NXT FCST BY 200000Z
KDET 
8nm N 
200209Z 2002/2024 27011G19KT P6SM BKN035 BKN150 FM200400 24008KT P6SM BKN100 FM201000 22010KT P6SM BKN200 FM201700 21014G22KT P6SM SCT250
KDTW 
17nm W 
200208Z 2002/2106 27012G20KT P6SM SCT035 BKN150 FM200400 24008KT P6SM BKN100 FM201000 22010KT P6SM BKN200 FM201700 21014G22KT P6SM SCT250
NOTAMs
Click for the latest NOTAMs
NOTAMs are issued by the DoD/FAA and will open in a separate window not controlled by AirNav.

 

 
 

Would you like to see your business listed on this page?

 If your business provides an interesting product or service to pilots, flight crews, aircraft, or users of the Windsor Airport, you should consider listing it here.  To start the listing process, click on the button below
 
Add a business
 

Other Pages about Windsor Airport

Update a link
 
Copyright © AirNav, LLC. All rights reserved. Privacy Policy  Contact